Time;durP1;ratioP1;P1;durP2;ratioP2;P2;SDS_P1;SDS_P2;PMS_P1;PMS_P2;Temp;Humidity;BMP_temperature;BMP_pressure;BME280_temperature;BME280_humidity;BME280_pressure;Samples;Min_cycle;Max_cycle;Signal;HPM_P1;HPM_P2
2022/09/27 00:00:25;;;;;;;5.85;1.23;;;;;;;;;;4977684;28;20038;-67
2022/09/27 00:02:51;;;;;;;13.35;1.70;;;;;;;;;;4977566;28;20046;-67
2022/09/27 00:05:18;;;;;;;8.90;1.35;;;;;;;;;;4978040;28;20058;-67
2022/09/27 00:07:44;;;;;;;5.60;0.90;;;;;;;;;;4976929;28;20046;-67
2022/09/27 00:10:11;;;;;;;9.60;1.35;;;;;;;;;;4989539;28;20409;-67
2022/09/27 00:12:38;;;;;;;7.32;1.00;;;;;;;;;;4977931;28;20148;-67
2022/09/27 00:15:05;;;;;;;7.07;0.88;;;;;;;;;;4975858;28;20056;-67
2022/09/27 00:17:31;;;;;;;7.82;0.90;;;;;;;;;;4976740;28;20093;-67
2022/09/27 00:19:59;;;;;;;9.40;1.10;;;;;;;;;;4976939;28;20050;-67
2022/09/27 00:22:26;;;;;;;5.85;1.08;;;;;;;;;;4977307;28;20042;-67
2022/09/27 00:24:52;;;;;;;8.02;1.10;;;;;;;;;;4977999;28;20416;-67
2022/09/27 00:27:18;;;;;;;9.10;1.27;;;;;;;;;;4982192;28;20061;-67
2022/09/27 00:29:45;;;;;;;6.28;0.65;;;;;;;;;;4977343;28;20378;-67
2022/09/27 00:32:12;;;;;;;7.50;0.75;;;;;;;;;;4978447;28;20034;-67
2022/09/27 00:34:39;;;;;;;10.63;1.00;;;;;;;;;;4980078;28;20042;-67
2022/09/27 00:37:05;;;;;;;8.02;1.05;;;;;;;;;;4979883;28;20050;-67
2022/09/27 00:39:31;;;;;;;11.32;1.08;;;;;;;;;;4978670;28;20046;-67
2022/09/27 00:41:57;;;;;;;6.85;0.77;;;;;;;;;;4976694;28;20150;-67
2022/09/27 00:44:24;;;;;;;13.10;1.15;;;;;;;;;;4979811;28;20069;-67
2022/09/27 00:46:55;;;;;;;12.70;1.25;;;;;;;;;;4979879;28;20054;-67
2022/09/27 00:49:22;;;;;;;8.93;1.33;;;;;;;;;;4962903;28;20064;-67
2022/09/27 00:51:51;;;;;;;5.78;1.05;;;;;;;;;;4977139;28;20164;-67
2022/09/27 00:54:19;;;;;;;6.03;0.90;;;;;;;;;;4978669;28;20069;-68
2022/09/27 00:56:46;;;;;;;11.18;1.00;;;;;;;;;;4981043;28;20544;-67
2022/09/27 00:59:15;;;;;;;5.57;1.02;;;;;;;;;;4978381;28;20046;-67
2022/09/27 01:01:42;;;;;;;12.50;2.78;;;;;;;;;;4977132;28;20057;-67
2022/09/27 01:04:10;;;;;;;11.02;1.35;;;;;;;;;;4976648;28;20371;-67
2022/09/27 01:06:37;;;;;;;8.07;0.80;;;;;;;;;;4979398;28;20490;-67
2022/09/27 01:09:04;;;;;;;12.88;1.13;;;;;;;;;;4974109;28;20531;-67
2022/09/27 01:11:35;;;;;;;13.88;1.35;;;;;;;;;;4976725;28;20129;-67
2022/09/27 01:14:01;;;;;;;7.10;1.00;;;;;;;;;;4976468;28;20046;-67
2022/09/27 01:16:31;;;;;;;5.38;1.20;;;;;;;;;;4975983;28;20053;-67
2022/09/27 01:18:58;;;;;;;8.25;1.20;;;;;;;;;;4977751;28;20046;-67
2022/09/27 01:21:33;;;;;;;8.70;1.23;;;;;;;;;;4980656;28;20050;-67
2022/09/27 01:24:12;;;;;;;5.85;1.00;;;;;;;;;;4979537;28;20676;-67
2022/09/27 01:26:44;;;;;;;5.57;0.93;;;;;;;;;;4976591;28;20046;-67
2022/09/27 01:29:20;;;;;;;6.97;1.00;;;;;;;;;;4978037;28;20065;-67
2022/09/27 01:31:50;;;;;;;9.00;1.10;;;;;;;;;;4973501;28;20520;-67
2022/09/27 01:34:32;;;;;;;4.55;1.05;;;;;;;;;;4976375;28;20050;-67
2022/09/27 01:37:08;;;;;;;4.03;0.82;;;;;;;;;;4977631;28;20042;-67
2022/09/27 01:39:50;;;;;;;6.05;0.70;;;;;;;;;;4975592;28;20897;-67
2022/09/27 01:42:26;;;;;;;10.13;1.90;;;;;;;;;;4975764;28;20042;-67
2022/09/27 01:45:02;;;;;;;9.68;1.65;;;;;;;;;;4978132;28;20124;-67
2022/09/27 01:47:35;;;;;;;8.63;1.35;;;;;;;;;;4978335;28;20051;-67
2022/09/27 01:50:03;;;;;;;18.38;1.73;;;;;;;;;;4978669;28;20489;-67
2022/09/27 01:52:34;;;;;;;17.70;1.50;;;;;;;;;;4976677;28;20049;-67
2022/09/27 01:55:02;;;;;;;10.07;1.10;;;;;;;;;;4977134;28;20050;-67
2022/09/27 01:57:31;;;;;;;9.15;1.25;;;;;;;;;;4979326;28;20042;-67
2022/09/27 02:00:01;;;;;;;7.95;1.17;;;;;;;;;;4976516;28;20047;-67
2022/09/27 02:02:28;;;;;;;10.02;1.15;;;;;;;;;;4975790;28;20049;-67
2022/09/27 02:04:56;;;;;;;7.45;1.00;;;;;;;;;;4979168;28;20039;-67
2022/09/27 02:07:26;;;;;;;13.02;1.52;;;;;;;;;;4979102;28;21551;-67
2022/09/27 02:09:56;;;;;;;6.00;0.80;;;;;;;;;;4975790;28;20034;-67
2022/09/27 02:12:25;;;;;;;9.77;0.90;;;;;;;;;;4977234;28;20105;-68
2022/09/27 02:14:53;;;;;;;7.00;0.70;;;;;;;;;;4974785;28;20066;-67
2022/09/27 02:17:29;;;;;;;4.63;0.73;;;;;;;;;;4978100;28;20097;-67
2022/09/27 02:20:02;;;;;;;8.98;1.25;;;;;;;;;;4976949;28;20507;-67
2022/09/27 02:22:38;;;;;;;13.60;1.55;;;;;;;;;;4978425;28;20042;-67
2022/09/27 02:25:04;;;;;;;18.88;2.35;;;;;;;;;;4978455;28;20073;-67
2022/09/27 02:27:33;;;;;;;12.35;1.42;;;;;;;;;;4977908;28;20136;-67
2022/09/27 02:30:08;;;;;;;8.05;0.90;;;;;;;;;;4974914;28;20041;-67
2022/09/27 02:32:34;;;;;;;11.68;1.33;;;;;;;;;;4977006;28;20076;-67
2022/09/27 02:35:02;;;;;;;10.77;1.40;;;;;;;;;;4974343;28;20065;-67
2022/09/27 02:37:28;;;;;;;7.40;1.45;;;;;;;;;;4974621;28;20513;-67
2022/09/27 02:39:54;;;;;;;6.00;0.90;;;;;;;;;;4973934;28;20057;-67
2022/09/27 02:42:20;;;;;;;8.18;0.88;;;;;;;;;;4975178;28;20049;-67
2022/09/27 02:44:46;;;;;;;8.65;0.70;;;;;;;;;;4977239;28;20046;-67
2022/09/27 02:47:13;;;;;;;5.47;0.75;;;;;;;;;;4976513;28;20054;-67
2022/09/27 02:49:44;;;;;;;6.45;0.60;;;;;;;;;;4972301;28;20049;-67
2022/09/27 02:52:10;;;;;;;3.67;0.70;;;;;;;;;;4975646;28;20054;-68
2022/09/27 02:54:39;;;;;;;6.18;0.80;;;;;;;;;;4975985;28;20038;-67
2022/09/27 02:57:20;;;;;;;11.75;1.30;;;;;;;;;;4974672;28;20061;-67
2022/09/27 02:59:47;;;;;;;9.82;1.42;;;;;;;;;;4974906;28;20045;-67
2022/09/27 03:02:19;;;;;;;10.68;1.10;;;;;;;;;;4976993;28;20161;-67
2022/09/27 03:04:53;;;;;;;5.03;0.60;;;;;;;;;;4960976;28;20078;-67
2022/09/27 03:07:19;;;;;;;8.88;1.08;;;;;;;;;;4979338;28;20073;-67
2022/09/27 03:09:47;;;;;;;4.53;1.13;;;;;;;;;;4976717;28;20058;-67
2022/09/27 03:12:14;;;;;;;5.03;0.75;;;;;;;;;;4974440;28;20556;-67
2022/09/27 03:14:40;;;;;;;5.68;1.10;;;;;;;;;;4979743;28;20062;-67
2022/09/27 03:17:06;;;;;;;4.07;0.70;;;;;;;;;;4976793;28;20042;-67
2022/09/27 03:19:32;;;;;;;6.60;1.25;;;;;;;;;;4974269;28;20050;-67
2022/09/27 03:21:58;;;;;;;6.18;1.13;;;;;;;;;;4977171;28;20104;-67
2022/09/27 03:24:25;;;;;;;11.32;1.00;;;;;;;;;;4960266;28;20133;-67
2022/09/27 03:26:51;;;;;;;12.68;1.55;;;;;;;;;;4976033;28;20592;-67
2022/09/27 03:29:17;;;;;;;10.52;1.23;;;;;;;;;;4977846;28;20034;-67
2022/09/27 03:31:43;;;;;;;15.60;1.77;;;;;;;;;;4979494;28;20085;-67
2022/09/27 03:34:09;;;;;;;6.93;1.55;;;;;;;;;;4962452;28;20176;-67
2022/09/27 03:36:35;;;;;;;5.10;1.02;;;;;;;;;;4978287;28;20047;-67
2022/09/27 03:39:01;;;;;;;7.72;1.15;;;;;;;;;;4978114;28;20128;-67
2022/09/27 03:41:28;;;;;;;8.50;1.00;;;;;;;;;;4982639;28;20041;-67
2022/09/27 03:43:56;;;;;;;10.93;0.98;;;;;;;;;;4979894;28;20058;-68
2022/09/27 03:46:23;;;;;;;12.98;1.77;;;;;;;;;;4976408;28;20058;-68
2022/09/27 03:48:49;;;;;;;12.35;1.33;;;;;;;;;;4974740;28;20061;-67
2022/09/27 03:51:15;;;;;;;8.88;1.23;;;;;;;;;;4976648;28;20484;-67
2022/09/27 03:53:41;;;;;;;6.18;0.90;;;;;;;;;;4975006;28;20043;-67
2022/09/27 03:56:08;;;;;;;6.55;0.77;;;;;;;;;;4981144;28;20050;-68
2022/09/27 03:58:34;;;;;;;8.65;1.33;;;;;;;;;;4980687;28;20065;-67
2022/09/27 04:01:01;;;;;;;6.20;0.68;;;;;;;;;;4978355;28;20054;-67
2022/09/27 04:03:27;;;;;;;6.90;0.82;;;;;;;;;;4980816;28;20593;-67
2022/09/27 04:05:53;;;;;;;6.00;1.08;;;;;;;;;;4979285;28;20054;-68
2022/09/27 04:08:21;;;;;;;4.78;0.88;;;;;;;;;;4979501;28;20069;-68
2022/09/27 04:10:47;;;;;;;4.93;0.93;;;;;;;;;;4979495;28;20072;-67
2022/09/27 04:13:13;;;;;;;5.30;0.98;;;;;;;;;;4978230;28;20034;-68
2022/09/27 04:15:40;;;;;;;3.30;0.75;;;;;;;;;;4978221;28;20600;-67
2022/09/27 04:18:06;;;;;;;9.82;1.40;;;;;;;;;;4980449;28;20045;-67
2022/09/27 04:20:32;;;;;;;7.47;1.55;;;;;;;;;;4979571;28;20050;-68
2022/09/27 04:22:59;;;;;;;6.78;0.90;;;;;;;;;;4981266;28;20122;-67
2022/09/27 04:25:25;;;;;;;10.93;0.80;;;;;;;;;;4980517;28;20079;-67
2022/09/27 04:27:53;;;;;;;9.38;0.80;;;;;;;;;;4981542;28;20104;-68
2022/09/27 04:30:19;;;;;;;6.82;0.90;;;;;;;;;;4979672;28;21365;-67
2022/09/27 04:32:46;;;;;;;10.63;1.35;;;;;;;;;;4976413;28;20054;-67
2022/09/27 04:37:57;;;;;;;9.02;0.77;;;;;;;;;;4982280;28;20046;-67
2022/09/27 04:40:24;;;;;;;6.40;1.17;;;;;;;;;;4983471;28;20077;-67
2022/09/27 04:42:51;;;;;;;4.35;0.75;;;;;;;;;;4983151;28;20057;-67
2022/09/27 04:45:17;;;;;;;5.25;0.98;;;;;;;;;;4981766;28;20050;-67
2022/09/27 04:47:44;;;;;;;5.10;0.80;;;;;;;;;;4982917;28;20050;-67
2022/09/27 04:50:10;;;;;;;7.20;1.27;;;;;;;;;;4978869;28;20042;-67
2022/09/27 04:52:37;;;;;;;9.63;1.00;;;;;;;;;;4994917;28;20136;-67
2022/09/27 04:55:03;;;;;;;6.43;0.90;;;;;;;;;;4984350;28;20054;-66
2022/09/27 04:57:29;;;;;;;4.78;0.68;;;;;;;;;;4981704;28;20100;-66
2022/09/27 04:59:59;;;;;;;6.90;1.10;;;;;;;;;;4985625;28;20035;-66
2022/09/27 05:02:26;;;;;;;5.53;1.10;;;;;;;;;;4985076;28;20181;-66
2022/09/27 05:04:55;;;;;;;11.57;1.35;;;;;;;;;;4981187;28;20050;-66
2022/09/27 05:07:21;;;;;;;12.57;1.38;;;;;;;;;;4984708;28;20054;-67
2022/09/27 05:09:47;;;;;;;10.57;1.45;;;;;;;;;;4984949;28;20050;-67
2022/09/27 05:12:13;;;;;;;4.93;0.90;;;;;;;;;;4983656;28;20042;-65
2022/09/27 05:14:40;;;;;;;4.72;0.90;;;;;;;;;;4985413;28;20137;-65
2022/09/27 05:17:06;;;;;;;7.07;1.15;;;;;;;;;;4985635;28;20156;-65
2022/09/27 05:19:33;;;;;;;6.47;1.10;;;;;;;;;;4983835;28;20112;-64
2022/09/27 05:21:59;;;;;;;8.13;1.02;;;;;;;;;;4985990;28;20477;-65
2022/09/27 05:24:26;;;;;;;8.93;1.20;;;;;;;;;;4990046;28;20416;-74
2022/09/27 05:26:53;;;;;;;5.88;1.02;;;;;;;;;;4991599;28;20051;-65
2022/09/27 05:29:19;;;;;;;5.60;1.48;;;;;;;;;;4991941;28;20042;-65
2022/09/27 05:31:46;;;;;;;9.50;1.27;;;;;;;;;;4990005;28;20133;-65
2022/09/27 05:34:12;;;;;;;9.05;1.55;;;;;;;;;;4992212;28;20049;-66
2022/09/27 05:36:38;;;;;;;7.28;1.45;;;;;;;;;;4989986;28;20564;-66
2022/09/27 05:39:05;;;;;;;11.98;1.30;;;;;;;;;;4990480;28;20426;-66
2022/09/27 05:41:32;;;;;;;8.68;1.17;;;;;;;;;;4990044;28;20172;-65
2022/09/27 05:43:58;;;;;;;12.13;2.20;;;;;;;;;;4990343;28;20105;-66
2022/09/27 05:46:25;;;;;;;8.30;1.27;;;;;;;;;;4989010;28;20083;-66
2022/09/27 05:48:51;;;;;;;7.68;1.70;;;;;;;;;;4989645;28;20057;-66
2022/09/27 05:51:19;;;;;;;4.30;0.82;;;;;;;;;;4990603;28;20049;-66
2022/09/27 05:53:46;;;;;;;10.80;1.60;;;;;;;;;;4988728;28;20485;-65
2022/09/27 05:56:12;;;;;;;9.45;1.48;;;;;;;;;;4990188;28;20046;-68
2022/09/27 05:58:38;;;;;;;6.20;1.42;;;;;;;;;;4990932;28;20038;-66
2022/09/27 06:01:07;;;;;;;10.75;1.30;;;;;;;;;;4989653;28;20106;-65
2022/09/27 06:03:33;;;;;;;13.18;1.73;;;;;;;;;;4990043;28;20122;-65
2022/09/27 06:06:04;;;;;;;7.45;0.90;;;;;;;;;;4987080;28;20046;-65
2022/09/27 06:08:33;;;;;;;7.57;1.20;;;;;;;;;;4990176;28;20621;-65
2022/09/27 06:11:03;;;;;;;7.20;1.20;;;;;;;;;;4989861;28;20057;-65
2022/09/27 06:13:29;;;;;;;3.40;0.70;;;;;;;;;;4989789;28;20034;-65
2022/09/27 06:15:55;;;;;;;6.30;0.95;;;;;;;;;;4987794;28;20485;-66
2022/09/27 06:18:21;;;;;;;9.05;1.45;;;;;;;;;;4990067;28;20404;-65
2022/09/27 06:20:47;;;;;;;7.25;1.25;;;;;;;;;;4989620;28;20056;-65
2022/09/27 06:23:16;;;;;;;11.40;1.42;;;;;;;;;;4990347;28;20045;-65
2022/09/27 06:25:42;;;;;;;2.38;0.57;;;;;;;;;;4989209;28;20105;-65
2022/09/27 06:28:09;;;;;;;7.32;1.02;;;;;;;;;;4988590;28;20038;-65
2022/09/27 06:30:39;;;;;;;5.60;0.88;;;;;;;;;;4990536;28;20069;-65
2022/09/27 06:33:05;;;;;;;4.18;0.90;;;;;;;;;;4983260;28;20054;-65
2022/09/27 06:35:34;;;;;;;7.93;0.90;;;;;;;;;;4989027;28;20048;-64
2022/09/27 06:38:02;;;;;;;6.30;1.05;;;;;;;;;;4990525;28;20074;-64
2022/09/27 06:40:29;;;;;;;4.85;0.57;;;;;;;;;;4990266;28;20042;-65
2022/09/27 06:43:01;;;;;;;2.50;0.40;;;;;;;;;;4988351;28;20074;-65
2022/09/27 06:45:27;;;;;;;1.65;0.50;;;;;;;;;;4988998;28;20047;-65
2022/09/27 06:47:54;;;;;;;3.30;0.60;;;;;;;;;;4990296;28;20144;-65
2022/09/27 06:50:20;;;;;;;3.22;0.55;;;;;;;;;;4989104;28;20134;-65
2022/09/27 06:52:47;;;;;;;3.10;0.40;;;;;;;;;;4988449;28;20053;-65
2022/09/27 06:55:13;;;;;;;6.72;0.55;;;;;;;;;;4990570;28;20054;-65
2022/09/27 07:00:25;;;;;;;4.20;0.70;;;;;;;;;;4989171;28;20133;-65
2022/09/27 07:02:52;;;;;;;4.28;0.63;;;;;;;;;;4987549;28;20512;-65
2022/09/27 07:05:18;;;;;;;4.53;0.82;;;;;;;;;;4987540;28;20448;-65
2022/09/27 07:07:45;;;;;;;2.90;1.00;;;;;;;;;;4989703;28;20069;-65
2022/09/27 07:10:11;;;;;;;4.22;0.80;;;;;;;;;;4989981;28;20048;-65
2022/09/27 07:12:37;;;;;;;5.47;1.00;;;;;;;;;;4989494;28;20414;-65
2022/09/27 07:15:04;;;;;;;2.53;0.70;;;;;;;;;;4989690;28;20066;-65
2022/09/27 07:17:31;;;;;;;5.32;0.80;;;;;;;;;;4984710;28;20062;-65
2022/09/27 07:19:57;;;;;;;4.88;0.80;;;;;;;;;;4984062;28;20128;-65
2022/09/27 07:22:23;;;;;;;4.93;0.90;;;;;;;;;;4985757;28;20046;-65
2022/09/27 07:24:49;;;;;;;5.07;0.80;;;;;;;;;;4982592;28;20113;-65
2022/09/27 07:27:17;;;;;;;4.50;0.90;;;;;;;;;;4983060;28;20039;-65
2022/09/27 07:29:43;;;;;;;3.83;1.08;;;;;;;;;;4979009;28;20393;-65
2022/09/27 07:32:10;;;;;;;6.07;1.10;;;;;;;;;;4983699;28;20173;-65
2022/09/27 07:34:36;;;;;;;5.05;1.17;;;;;;;;;;4989231;28;20100;-65
2022/09/27 07:37:04;;;;;;;5.47;1.30;;;;;;;;;;4989514;28;20113;-65
2022/09/27 07:39:31;;;;;;;2.67;0.70;;;;;;;;;;4988183;28;20410;-65
2022/09/27 07:41:57;;;;;;;2.47;0.80;;;;;;;;;;4989065;28;20089;-65
2022/09/27 07:44:24;;;;;;;6.57;0.93;;;;;;;;;;4989505;28;20125;-65
2022/09/27 07:46:50;;;;;;;5.00;1.20;;;;;;;;;;4987178;28;20406;-65
2022/09/27 07:49:16;;;;;;;5.70;0.90;;;;;;;;;;4988896;28;20401;-65
2022/09/27 07:51:42;;;;;;;6.75;0.70;;;;;;;;;;4988700;28;20486;-65
2022/09/27 07:54:08;;;;;;;6.40;0.80;;;;;;;;;;4988945;28;20042;-65
2022/09/27 07:56:35;;;;;;;6.88;1.00;;;;;;;;;;4989341;28;20049;-66
2022/09/27 07:59:01;;;;;;;4.70;0.90;;;;;;;;;;4987941;28;20073;-65
2022/09/27 08:01:27;;;;;;;3.47;0.52;;;;;;;;;;4989418;28;20045;-65
2022/09/27 08:03:54;;;;;;;7.53;0.80;;;;;;;;;;4988047;28;20516;-66
2022/09/27 08:06:20;;;;;;;5.18;0.98;;;;;;;;;;4979447;28;20050;-66
2022/09/27 08:08:46;;;;;;;10.38;1.42;;;;;;;;;;4985210;28;20516;-66
2022/09/27 08:11:14;;;;;;;5.28;1.00;;;;;;;;;;4983863;28;20801;-65
2022/09/27 08:13:41;;;;;;;9.88;0.93;;;;;;;;;;4981908;28;20039;-66
2022/09/27 08:16:07;;;;;;;8.95;0.90;;;;;;;;;;4983196;28;20054;-66
2022/09/27 08:18:33;;;;;;;9.73;1.27;;;;;;;;;;4984169;28;20551;-66
2022/09/27 08:21:00;;;;;;;5.60;1.20;;;;;;;;;;4983933;28;20522;-65
2022/09/27 08:23:26;;;;;;;6.22;0.60;;;;;;;;;;4982164;28;20038;-65
2022/09/27 08:25:53;;;;;;;5.45;0.60;;;;;;;;;;4981320;28;20145;-65
2022/09/27 08:28:21;;;;;;;6.07;0.70;;;;;;;;;;4983870;28;20042;-65
2022/09/27 08:30:48;;;;;;;3.35;0.60;;;;;;;;;;4982644;28;20046;-65
2022/09/27 08:33:14;;;;;;;4.63;0.60;;;;;;;;;;4984743;28;20069;-65
2022/09/27 08:35:40;;;;;;;5.80;1.20;;;;;;;;;;4983000;28;20053;-66
2022/09/27 08:38:07;;;;;;;3.17;0.57;;;;;;;;;;4984453;28;20046;-65
2022/09/27 08:40:40;;;;;;;4.65;0.70;;;;;;;;;;4987730;28;20054;-65
2022/09/27 08:43:14;;;;;;;5.00;0.88;;;;;;;;;;4988889;28;20207;-65
2022/09/27 08:45:40;;;;;;;;;;;;;;;;;;4988161;28;20049;-65
2022/09/27 08:48:08;;;;;;;7.85;0.85;;;;;;;;;;4987428;28;19925;-65
2022/09/27 08:50:36;;;;;;;6.90;0.80;;;;;;;;;;4985134;28;20038;-65
2022/09/27 08:53:07;;;;;;;3.28;0.68;;;;;;;;;;4987745;28;20378;-65
2022/09/27 08:55:38;;;;;;;3.83;1.25;;;;;;;;;;4986731;28;20064;-67
2022/09/27 08:58:12;;;;;;;3.55;0.50;;;;;;;;;;4987708;28;20050;-65
2022/09/27 09:00:38;;;;;;;4.78;0.93;;;;;;;;;;4988849;28;20046;-65
2022/09/27 09:03:05;;;;;;;3.42;0.80;;;;;;;;;;4991140;28;20564;-65
2022/09/27 09:05:34;;;;;;;5.20;0.80;;;;;;;;;;4992646;28;20031;-65
2022/09/27 09:08:18;;;;;;;5.35;0.90;;;;;;;;;;4988246;28;20570;-65
2022/09/27 09:13:41;;;;;;;7.20;0.60;;;;;;;;;;4991486;28;20050;-65
2022/09/27 09:16:07;;;;;;;7.53;1.05;;;;;;;;;;4987706;28;20137;-65
2022/09/27 09:18:48;;;;;;;4.85;0.60;;;;;;;;;;4986695;28;20089;-65
2022/09/27 09:21:24;;;;;;;4.38;0.50;;;;;;;;;;4981292;28;20084;-65
2022/09/27 09:24:02;;;;;;;2.88;0.70;;;;;;;;;;4984304;28;21152;-66
2022/09/27 09:26:38;;;;;;;3.13;0.57;;;;;;;;;;4984638;28;20046;-66
2022/09/27 09:29:05;;;;;;;5.20;0.60;;;;;;;;;;4971366;28;20054;-66
2022/09/27 09:31:51;;;;;;;2.97;0.47;;;;;;;;;;4985316;28;20046;-66
2022/09/27 09:34:17;;;;;;;4.55;0.77;;;;;;;;;;4987534;28;20054;-65
2022/09/27 09:36:52;;;;;;;5.55;0.95;;;;;;;;;;4984597;28;20416;-65
2022/09/27 09:39:19;;;;;;;6.93;0.80;;;;;;;;;;4982178;28;20444;-66
2022/09/27 09:41:48;;;;;;;3.60;0.80;;;;;;;;;;4986711;28;20046;-65
2022/09/27 09:44:21;;;;;;;6.32;0.50;;;;;;;;;;4987053;28;20062;-65
2022/09/27 09:46:49;;;;;;;3.57;1.37;;;;;;;;;;4986272;28;20046;-65
2022/09/27 09:49:21;;;;;;;6.43;0.73;;;;;;;;;;4987123;28;20494;-65
2022/09/27 09:51:55;;;;;;;11.77;1.02;;;;;;;;;;4985867;28;21374;-65
2022/09/27 09:54:21;;;;;;;13.00;1.40;;;;;;;;;;4985577;28;20093;-65
2022/09/27 09:56:50;;;;;;;14.65;1.77;;;;;;;;;;4983962;28;20042;-65
2022/09/27 09:59:26;;;;;;;5.65;1.00;;;;;;;;;;4981425;28;20043;-65
2022/09/27 10:01:54;;;;;;;8.18;1.52;;;;;;;;;;4984922;28;20073;-65
2022/09/27 10:04:23;;;;;;;10.05;1.02;;;;;;;;;;4986883;28;20038;-65
2022/09/27 10:06:50;;;;;;;10.68;0.80;;;;;;;;;;4984816;28;20053;-66
2022/09/27 10:09:17;;;;;;;2.38;0.60;;;;;;;;;;4986976;28;20458;-66
2022/09/27 10:11:45;;;;;;;6.13;0.80;;;;;;;;;;4986862;28;20514;-65
2022/09/27 10:14:13;;;;;;;4.28;0.60;;;;;;;;;;4986061;28;20042;-65
2022/09/27 10:16:42;;;;;;;8.20;0.60;;;;;;;;;;4985183;28;20188;-66
2022/09/27 10:19:09;;;;;;;4.47;0.60;;;;;;;;;;4986762;28;20042;-66
2022/09/27 10:21:38;;;;;;;3.70;0.82;;;;;;;;;;4984093;28;20441;-65
2022/09/27 10:24:08;;;;;;;7.32;0.93;;;;;;;;;;4987209;28;20065;-65
2022/09/27 10:26:35;;;;;;;4.95;0.60;;;;;;;;;;4984570;28;20448;-66
2022/09/27 10:29:15;;;;;;;4.82;0.60;;;;;;;;;;4985957;28;20441;-66
2022/09/27 10:31:46;;;;;;;3.08;0.50;;;;;;;;;;4986562;28;20085;-66
2022/09/27 10:34:25;;;;;;;5.32;0.80;;;;;;;;;;4984221;28;20042;-66
2022/09/27 10:37:03;;;;;;;9.65;0.80;;;;;;;;;;4994989;28;20351;-66
2022/09/27 10:39:30;;;;;;;5.20;1.00;;;;;;;;;;4986742;28;20412;-66
2022/09/27 10:41:56;;;;;;;7.63;1.48;;;;;;;;;;4988074;28;20093;-66
2022/09/27 10:44:26;;;;;;;8.95;0.95;;;;;;;;;;4981930;28;21456;-66
2022/09/27 10:46:53;;;;;;;6.85;0.80;;;;;;;;;;4985618;28;20390;-66
2022/09/27 10:49:20;;;;;;;8.88;1.45;;;;;;;;;;4984143;28;20403;-66
2022/09/27 10:51:49;;;;;;;6.05;0.80;;;;;;;;;;4986040;28;20041;-66
2022/09/27 10:54:22;;;;;;;3.70;0.73;;;;;;;;;;4986575;28;20130;-66
2022/09/27 10:56:55;;;;;;;2.08;0.50;;;;;;;;;;4986587;28;20049;-66
2022/09/27 10:59:22;;;;;;;2.13;0.80;;;;;;;;;;4985258;28;20406;-66
2022/09/27 11:01:49;;;;;;;4.35;0.60;;;;;;;;;;4985016;28;20105;-66
2022/09/27 11:04:19;;;;;;;5.10;0.50;;;;;;;;;;4985276;28;20125;-66
2022/09/27 11:06:45;;;;;;;3.22;0.52;;;;;;;;;;4982673;28;20146;-66
2022/09/27 11:09:18;;;;;;;2.70;0.50;;;;;;;;;;4968337;28;20825;-66
2022/09/27 11:11:45;;;;;;;3.55;0.70;;;;;;;;;;4985742;28;20046;-66
2022/09/27 11:14:19;;;;;;;3.85;0.75;;;;;;;;;;4986407;28;20557;-66
2022/09/27 11:16:49;;;;;;;3.55;0.50;;;;;;;;;;4982482;28;20050;-66
2022/09/27 11:19:34;;;;;;;5.18;0.50;;;;;;;;;;4982777;28;20081;-66
2022/09/27 11:22:04;;;;;;;3.67;0.50;;;;;;;;;;4983693;28;20057;-66
2022/09/27 11:24:31;;;;;;;2.13;0.40;;;;;;;;;;4981888;28;20072;-66
2022/09/27 11:27:07;;;;;;;4.43;0.85;;;;;;;;;;4985944;28;20074;-66
2022/09/27 11:29:40;;;;;;;3.40;0.40;;;;;;;;;;4985175;28;20050;-66
2022/09/27 11:32:12;;;;;;;3.80;0.63;;;;;;;;;;4986857;28;20085;-66
2022/09/27 11:34:48;;;;;;;4.00;0.45;;;;;;;;;;4987510;28;20042;-66
2022/09/27 11:37:14;;;;;;;4.57;1.05;;;;;;;;;;4989364;28;20137;-66
2022/09/27 11:40:03;;;;;;;3.10;0.50;;;;;;;;;;4985275;28;20532;-66
2022/09/27 11:42:32;;;;;;;2.97;0.73;;;;;;;;;;4985091;28;20061;-66
2022/09/27 11:45:13;;;;;;;4.63;0.75;;;;;;;;;;4985337;28;20038;-66
2022/09/27 11:47:59;;;;;;;7.60;0.93;;;;;;;;;;4985265;28;20049;-65
2022/09/27 11:50:45;;;;;;;2.50;0.57;;;;;;;;;;4986029;28;20050;-65
2022/09/27 11:53:17;;;;;;;3.00;0.98;;;;;;;;;;4985239;28;20046;-66
2022/09/27 11:55:51;;;;;;;3.08;0.50;;;;;;;;;;4983494;28;20450;-66
2022/09/27 11:58:28;;;;;;;5.03;0.93;;;;;;;;;;4985105;28;20038;-66
2022/09/27 12:01:04;;;;;;;2.30;0.50;;;;;;;;;;4985697;28;20128;-66
2022/09/27 12:03:37;;;;;;;4.53;0.88;;;;;;;;;;4985050;28;20511;-66
2022/09/27 12:06:03;;;;;;;;;;;;;;;;;;4984140;28;20046;-66
2022/09/27 12:08:47;;;;;;;2.40;0.60;;;;;;;;;;4965760;28;19929;-66
2022/09/27 12:11:19;;;;;;;3.63;0.77;;;;;;;;;;4948338;28;20058;-66
2022/09/27 12:13:48;;;;;;;5.10;1.02;;;;;;;;;;4965634;28;20038;-66
2022/09/27 12:16:15;;;;;;;6.25;1.02;;;;;;;;;;4950272;28;20482;-66
2022/09/27 12:18:42;;;;;;;3.33;0.60;;;;;;;;;;4969657;28;20117;-66
2022/09/27 12:21:09;;;;;;;4.05;0.57;;;;;;;;;;4951593;28;20063;-66
2022/09/27 12:23:36;;;;;;;6.75;0.85;;;;;;;;;;4968451;28;20081;-66
2022/09/27 12:26:06;;;;;;;11.88;1.63;;;;;;;;;;4951235;28;20046;-66
2022/09/27 12:28:38;;;;;;;11.15;1.25;;;;;;;;;;4951532;28;20047;-66
2022/09/27 12:31:07;;;;;;;4.43;0.70;;;;;;;;;;4951863;28;20078;-66
2022/09/27 12:33:41;;;;;;;7.15;0.90;;;;;;;;;;4950424;28;20441;-65
2022/09/27 12:36:10;;;;;;;11.07;1.00;;;;;;;;;;4968653;28;20062;-66
2022/09/27 12:38:40;;;;;;;6.38;0.88;;;;;;;;;;4951862;28;20043;-66
2022/09/27 12:41:08;;;;;;;4.97;0.82;;;;;;;;;;4968020;28;20466;-65
2022/09/27 12:43:34;;;;;;;7.30;0.68;;;;;;;;;;4968370;28;20042;-66
2022/09/27 12:46:12;;;;;;;4.50;0.95;;;;;;;;;;4970223;28;20047;-65
2022/09/27 12:48:51;;;;;;;6.30;0.95;;;;;;;;;;4970690;28;20073;-65
2022/09/27 12:51:20;;;;;;;7.95;1.17;;;;;;;;;;4951286;28;20117;-66
2022/09/27 12:53:58;;;;;;;2.28;0.40;;;;;;;;;;4961485;28;20050;-66
2022/09/27 12:56:25;;;;;;;4.57;0.60;;;;;;;;;;4966357;28;20130;-66
2022/09/27 12:59:17;;;;;;;6.63;1.40;;;;;;;;;;4964733;28;20077;-66
2022/09/27 13:01:48;;;;;;;2.58;0.57;;;;;;;;;;4964034;28;20087;-66
2022/09/27 13:04:20;;;;;;;4.13;0.80;;;;;;;;;;4950184;28;20042;-66
2022/09/27 13:07:03;;;;;;;1.67;0.45;;;;;;;;;;4957285;28;20177;-66
2022/09/27 13:09:40;;;;;;;6.90;1.80;;;;;;;;;;4983312;28;20586;-66
2022/09/27 13:12:10;;;;;;;4.93;0.93;;;;;;;;;;4984474;28;20593;-66
2022/09/27 13:14:50;;;;;;;9.77;1.48;;;;;;;;;;4983133;28;20062;-65
2022/09/27 13:17:36;;;;;;;7.18;0.90;;;;;;;;;;4978749;28;20050;-66
2022/09/27 13:20:21;;;;;;;7.80;1.58;;;;;;;;;;4985811;28;20054;-65
2022/09/27 13:22:47;;;;;;;6.30;1.63;;;;;;;;;;4984998;28;20176;-65
2022/09/27 13:25:32;;;;;;;5.47;0.82;;;;;;;;;;4984166;28;20038;-65
2022/09/27 13:27:59;;;;;;;4.82;0.82;;;;;;;;;;4984658;28;20046;-66
2022/09/27 13:30:45;;;;;;;5.82;0.93;;;;;;;;;;4984680;28;20522;-66
2022/09/27 13:33:12;;;;;;;3.50;0.90;;;;;;;;;;4987117;28;20042;-65
2022/09/27 13:35:39;;;;;;;8.93;0.90;;;;;;;;;;4987476;28;20138;-66
2022/09/27 13:38:05;;;;;;;2.72;1.05;;;;;;;;;;4986783;28;20121;-66
2022/09/27 13:40:32;;;;;;;3.63;0.50;;;;;;;;;;4985760;28;20042;-66
2022/09/27 13:43:16;;;;;;;3.45;0.63;;;;;;;;;;4986469;28;20046;-66
2022/09/27 13:45:57;;;;;;;5.05;0.63;;;;;;;;;;4985685;28;20058;-66
2022/09/27 13:48:26;;;;;;;2.63;0.85;;;;;;;;;;4986012;28;20093;-66
2022/09/27 13:50:55;;;;;;;4.18;0.55;;;;;;;;;;4984011;28;20461;-66
2022/09/27 13:53:34;;;;;;;5.80;0.90;;;;;;;;;;4984514;28;20050;-66
2022/09/27 13:56:01;;;;;;;5.43;0.60;;;;;;;;;;4961669;28;20192;-66
2022/09/27 13:58:37;;;;;;;7.72;0.90;;;;;;;;;;4981639;28;20042;-66
2022/09/27 14:01:09;;;;;;;3.63;0.60;;;;;;;;;;4984968;28;20507;-66
2022/09/27 14:03:37;;;;;;;5.18;0.70;;;;;;;;;;4985383;28;20119;-66
2022/09/27 14:06:05;;;;;;;2.20;0.68;;;;;;;;;;4979567;28;20091;-66
2022/09/27 14:08:34;;;;;;;1.73;0.40;;;;;;;;;;4978212;28;20058;-66
2022/09/27 14:11:01;;;;;;;4.28;0.80;;;;;;;;;;4982905;28;20046;-65
2022/09/27 14:13:30;;;;;;;4.05;1.02;;;;;;;;;;4982735;28;20077;-65
2022/09/27 14:15:58;;;;;;;2.70;0.60;;;;;;;;;;4981063;28;20057;-65
2022/09/27 14:18:24;;;;;;;3.85;0.47;;;;;;;;;;4982496;28;20117;-66
2022/09/27 14:20:51;;;;;;;4.10;0.60;;;;;;;;;;4974569;28;20126;-67
2022/09/27 14:23:25;;;;;;;2.30;0.40;;;;;;;;;;4985442;28;20039;-66
2022/09/27 14:25:52;;;;;;;5.95;1.20;;;;;;;;;;4980502;28;21199;-66
2022/09/27 14:28:20;;;;;;;3.88;0.50;;;;;;;;;;4980055;28;20042;-66
2022/09/27 14:30:46;;;;;;;3.33;0.50;;;;;;;;;;4981075;28;20518;-66
2022/09/27 14:33:27;;;;;;;1.63;0.47;;;;;;;;;;4983335;28;20042;-66
2022/09/27 14:38:38;;;;;;;2.45;0.40;;;;;;;;;;4980729;28;20410;-66
2022/09/27 14:41:06;;;;;;;2.22;0.55;;;;;;;;;;4981212;28;20053;-66
2022/09/27 14:43:34;;;;;;;4.18;0.85;;;;;;;;;;4980889;28;20481;-66
2022/09/27 14:46:01;;;;;;;1.65;0.45;;;;;;;;;;4981516;28;20125;-66
2022/09/27 14:48:28;;;;;;;1.60;0.40;;;;;;;;;;4981871;28;20357;-66
2022/09/27 14:51:02;;;;;;;1.60;0.45;;;;;;;;;;4977996;28;20046;-66
2022/09/27 14:53:31;;;;;;;3.28;0.57;;;;;;;;;;4981173;28;20050;-66
2022/09/27 14:55:58;;;;;;;2.25;0.50;;;;;;;;;;4980054;28;20038;-66
2022/09/27 14:58:25;;;;;;;4.10;0.80;;;;;;;;;;4979206;28;20038;-66
2022/09/27 15:00:52;;;;;;;3.20;0.50;;;;;;;;;;4981688;28;20050;-66
2022/09/27 15:03:23;;;;;;;3.22;0.73;;;;;;;;;;4981244;28;20405;-66